Time;durP1;ratioP1;P1;durP2;ratioP2;P2;SDS_P1;SDS_P2;PMS_P1;PMS_P2;Temp;Humidity;BMP_temperature;BMP_pressure;BME280_temperature;BME280_humidity;BME280_pressure;Samples;Min_cycle;Max_cycle;Signal;HPM_P1;HPM_P2
2023/09/06 00:01:25;;;;;;;8.30;4.70;;;20.20;99.90;;;;;;5011787;28;20044;-70
2023/09/06 00:03:50;;;;;;;7.60;4.50;;;20.20;99.90;;;;;;5028242;28;20521;-71
2023/09/06 00:06:16;;;;;;;7.50;4.53;;;20.10;99.90;;;;;;5008308;28;20059;-70
2023/09/06 00:08:42;;;;;;;7.03;4.93;;;20.10;99.90;;;;;;5008065;28;20075;-70
2023/09/06 00:11:08;;;;;;;8.07;4.90;;;20.10;99.90;;;;;;5024767;28;20048;-70
2023/09/06 00:13:35;;;;;;;7.47;5.07;;;20.10;99.90;;;;;;5012463;28;20044;-70
2023/09/06 00:16:02;;;;;;;7.07;4.95;;;20.10;99.90;;;;;;5008185;28;20041;-70
2023/09/06 00:18:28;;;;;;;9.07;5.28;;;20.00;99.90;;;;;;5008020;28;20045;-70
2023/09/06 00:20:54;;;;;;;6.97;5.10;;;20.00;99.90;;;;;;5008626;28;20052;-70
2023/09/06 00:23:20;;;;;;;6.63;4.85;;;19.90;99.90;;;;;;5010792;28;20045;-70
2023/09/06 00:25:47;;;;;;;7.90;5.53;;;19.90;99.90;;;;;;5003420;28;20119;-70
2023/09/06 00:28:15;;;;;;;10.65;5.40;;;19.90;99.90;;;;;;4991394;28;21859;-70
2023/09/06 00:30:44;;;;;;;8.73;5.95;;;19.80;99.90;;;;;;5005981;28;20061;-70
2023/09/06 00:33:10;;;;;;;6.90;4.90;;;19.80;99.90;;;;;;5048652;22;20049;-72
2023/09/06 00:35:38;;;;;;;6.47;4.72;;;19.80;99.90;;;;;;5027945;28;20077;-72
2023/09/06 00:38:05;;;;;;;8.43;5.55;;;19.80;99.90;;;;;;5054650;28;20515;-72
2023/09/06 00:40:31;;;;;;;8.48;5.10;;;19.70;99.90;;;;;;5009284;28;20083;-72
2023/09/06 00:43:03;;;;;;;9.07;5.40;;;19.70;99.90;;;;;;5023411;28;20138;-72
2023/09/06 00:45:38;;;;;;;8.75;5.45;;;19.70;99.90;;;;;;5023108;28;20064;-72
2023/09/06 00:48:05;;;;;;;8.70;5.32;;;19.60;99.90;;;;;;5025317;28;20037;-73
2023/09/06 00:50:34;;;;;;;8.32;5.70;;;19.60;99.90;;;;;;5021595;28;20068;-72
2023/09/06 00:53:00;;;;;;;9.05;5.07;;;19.60;99.90;;;;;;5026955;28;20064;-72
2023/09/06 00:55:26;;;;;;;6.90;5.22;;;19.60;99.90;;;;;;5021792;28;20098;-72
2023/09/06 00:57:53;;;;;;;7.25;5.10;;;19.50;99.90;;;;;;5026571;28;20401;-73
2023/09/06 01:00:20;;;;;;;9.40;6.25;;;19.50;99.90;;;;;;5041857;28;20442;-72
2023/09/06 01:02:47;;;;;;;7.72;5.50;;;19.50;99.90;;;;;;5027756;28;20084;-72
2023/09/06 01:05:17;;;;;;;7.30;5.47;;;19.50;99.90;;;;;;5027649;28;20402;-72
2023/09/06 01:07:57;;;;;;;10.05;5.60;;;19.50;99.90;;;;;;5040253;28;20255;-72
2023/09/06 01:10:23;;;;;;;6.93;5.18;;;19.40;99.90;;;;;;5019772;28;20037;-72
2023/09/06 01:12:49;;;;;;;8.10;5.30;;;19.40;99.90;;;;;;5027278;28;20042;-72
2023/09/06 01:15:14;;;;;;;9.27;5.43;;;19.40;99.90;;;;;;5028538;28;20222;-72
2023/09/06 01:17:43;;;;;;;11.18;5.32;;;19.40;99.90;;;;;;5025498;28;20118;-72
2023/09/06 01:20:23;;;;;;;7.82;5.63;;;19.40;99.90;;;;;;5023468;28;20057;-72
2023/09/06 01:23:03;;;;;;;7.97;5.18;;;19.30;99.90;;;;;;5027127;28;20468;-73
2023/09/06 01:25:29;;;;;;;9.02;5.32;;;19.30;99.90;;;;;;5023946;28;20089;-72
2023/09/06 01:27:54;;;;;;;;;;;19.30;99.90;;;;;;5043733;28;20048;-72
2023/09/06 01:30:20;;;;;;;7.78;5.20;;;19.30;99.90;;;;;;5009898;28;19937;-72
2023/09/06 01:32:46;;;;;;;7.10;5.28;;;19.30;99.90;;;;;;5026719;28;20164;-70
2023/09/06 01:35:11;;;;;;;6.90;5.20;;;19.20;99.90;;;;;;5042501;28;20049;-70
2023/09/06 01:37:37;;;;;;;7.40;4.93;;;19.20;99.90;;;;;;5043002;28;20149;-71
2023/09/06 01:40:16;;;;;;;7.53;5.15;;;19.20;99.90;;;;;;5041169;28;20136;-70
2023/09/06 01:42:43;;;;;;;6.72;5.10;;;19.20;99.90;;;;;;5005944;28;20052;-71
2023/09/06 01:45:09;;;;;;;7.90;5.50;;;19.20;99.90;;;;;;5023358;28;20060;-70
2023/09/06 01:47:35;;;;;;;8.20;5.65;;;19.20;99.90;;;;;;5031328;28;20093;-71
2023/09/06 01:50:00;;;;;;;8.82;5.85;;;19.10;99.90;;;;;;5041222;28;20057;-71
2023/09/06 01:52:26;;;;;;;11.45;5.72;;;19.10;99.90;;;;;;5026233;28;20037;-71
2023/09/06 01:54:52;;;;;;;9.80;5.53;;;19.10;99.90;;;;;;5011604;28;20079;-71
2023/09/06 01:57:17;;;;;;;6.93;5.43;;;19.10;99.90;;;;;;5040234;28;20041;-71
2023/09/06 01:59:43;;;;;;;9.25;5.78;;;19.10;99.90;;;;;;5039162;28;20041;-71
2023/09/06 02:02:09;;;;;;;7.45;5.38;;;19.10;99.90;;;;;;5027278;28;20052;-71
2023/09/06 02:04:34;;;;;;;7.45;5.53;;;19.00;99.90;;;;;;5038051;28;20498;-71
2023/09/06 02:07:02;;;;;;;6.93;5.13;;;19.00;99.90;;;;;;5044738;28;20351;-71
2023/09/06 02:09:28;;;;;;;7.75;5.10;;;19.00;99.90;;;;;;5023149;28;20128;-71
2023/09/06 02:11:55;;;;;;;7.07;5.05;;;18.90;99.90;;;;;;5024545;28;20124;-71
2023/09/06 02:14:22;;;;;;;9.13;5.70;;;19.00;99.90;;;;;;5015912;28;20121;-72
2023/09/06 02:16:50;;;;;;;7.10;4.60;;;18.90;99.90;;;;;;5025419;28;20080;-74
2023/09/06 02:19:16;;;;;;;7.13;5.20;;;18.90;99.90;;;;;;5053478;28;20551;-71
2023/09/06 02:21:41;;;;;;;8.85;4.88;;;18.90;99.90;;;;;;5022359;28;20103;-71
2023/09/06 02:24:08;;;;;;;7.72;5.47;;;18.90;99.90;;;;;;5023094;28;20095;-71
2023/09/06 02:26:34;;;;;;;8.65;4.93;;;18.80;99.90;;;;;;5025646;28;20136;-71
2023/09/06 02:29:00;;;;;;;;;;;18.80;99.90;;;;;;5045185;28;20075;-71
2023/09/06 02:31:26;;;;;;;7.63;4.95;;;18.80;99.90;;;;;;5027653;28;19972;-71
2023/09/06 02:33:52;;;;;;;8.80;5.45;;;18.80;99.90;;;;;;5039605;28;20069;-71
2023/09/06 02:36:18;;;;;;;8.35;4.88;;;18.70;99.90;;;;;;5042077;28;20042;-71
2023/09/06 02:38:43;;;;;;;7.05;4.90;;;18.70;99.90;;;;;;5023705;28;20351;-71
2023/09/06 02:41:09;;;;;;;5.03;4.20;;;18.70;99.90;;;;;;5028074;28;20037;-71
2023/09/06 02:43:35;;;;;;;8.27;4.82;;;18.70;99.90;;;;;;5025560;28;20038;-71
2023/09/06 02:46:03;;;;;;;6.82;4.63;;;18.70;99.90;;;;;;5042872;28;20068;-71
2023/09/06 02:48:29;;;;;;;7.25;5.32;;;18.60;99.90;;;;;;5022546;28;20049;-71
2023/09/06 02:50:58;;;;;;;7.50;4.88;;;18.60;99.90;;;;;;5028869;28;20040;-71
2023/09/06 02:53:26;;;;;;;6.75;4.97;;;18.60;99.90;;;;;;5030067;28;20049;-71
2023/09/06 02:55:53;;;;;;;7.38;4.75;;;18.60;99.90;;;;;;5045813;28;20072;-71
2023/09/06 02:58:25;;;;;;;6.95;5.03;;;18.60;99.90;;;;;;5029333;28;20048;-70
2023/09/06 03:00:55;;;;;;;7.03;4.80;;;18.60;99.90;;;;;;5026908;28;20059;-71
2023/09/06 03:03:24;;;;;;;6.22;4.70;;;18.60;99.90;;;;;;5030019;28;20048;-71
2023/09/06 03:05:58;;;;;;;7.10;5.10;;;18.60;99.90;;;;;;5047756;28;20106;-71
2023/09/06 03:08:28;;;;;;;7.82;4.95;;;18.60;99.90;;;;;;5028075;28;20423;-71
2023/09/06 03:10:53;;;;;;;9.18;4.57;;;18.50;99.90;;;;;;5030143;28;20056;-71
2023/09/06 03:13:20;;;;;;;7.57;4.72;;;18.50;99.90;;;;;;5010543;28;20186;-71
2023/09/06 03:15:47;;;;;;;6.40;4.65;;;18.40;99.90;;;;;;5031825;28;20145;-71
2023/09/06 03:18:13;;;;;;;6.70;4.93;;;18.50;99.90;;;;;;5061602;28;20136;-71
2023/09/06 03:20:47;;;;;;;8.45;4.88;;;18.50;99.90;;;;;;5057577;28;20467;-71
2023/09/06 03:23:17;;;;;;;6.50;4.95;;;18.40;99.90;;;;;;5024676;28;20045;-71
2023/09/06 03:25:48;;;;;;;8.88;5.90;;;18.40;99.90;;;;;;5028278;28;20045;-70
2023/09/06 03:28:15;;;;;;;8.68;5.95;;;18.40;99.90;;;;;;5013864;28;20067;-71
2023/09/06 03:30:42;;;;;;;7.82;5.40;;;18.30;99.90;;;;;;5024483;28;20103;-71
2023/09/06 03:33:08;;;;;;;8.90;6.50;;;18.30;99.90;;;;;;5022514;28;20420;-71
2023/09/06 03:35:34;;;;;;;9.30;7.28;;;18.30;99.90;;;;;;5035187;28;20140;-71
2023/09/06 03:38:00;;;;;;;11.93;8.25;;;18.20;99.90;;;;;;5032068;28;20403;-71
2023/09/06 03:40:34;;;;;;;15.38;9.38;;;18.20;99.90;;;;;;5024816;28;20041;-71
2023/09/06 03:43:04;;;;;;;11.50;9.07;;;18.10;99.90;;;;;;5024520;28;20032;-71
2023/09/06 03:45:34;;;;;;;14.88;9.85;;;18.10;99.90;;;;;;5025833;28;20667;-71
2023/09/06 03:48:04;;;;;;;12.77;10.32;;;18.10;99.90;;;;;;5026369;28;20127;-71
2023/09/06 03:50:33;;;;;;;13.70;10.40;;;18.10;99.90;;;;;;5044346;28;20452;-70
2023/09/06 03:52:59;;;;;;;14.95;11.45;;;18.00;99.90;;;;;;5030043;28;20041;-71
2023/09/06 03:55:25;;;;;;;13.25;10.32;;;18.00;99.90;;;;;;5044482;28;20068;-71
2023/09/06 03:57:52;;;;;;;13.57;9.88;;;17.90;99.90;;;;;;5029712;28;20462;-71
2023/09/06 04:00:30;;;;;;;14.30;10.30;;;17.90;99.90;;;;;;5044701;28;20465;-71
2023/09/06 04:02:56;;;;;;;14.10;9.82;;;17.90;99.90;;;;;;5012855;28;20048;-71
2023/09/06 04:05:25;;;;;;;14.38;9.82;;;17.80;99.90;;;;;;5028862;28;20168;-71
2023/09/06 04:07:56;;;;;;;12.98;9.90;;;17.80;99.90;;;;;;5025283;28;20057;-71
2023/09/06 04:10:23;;;;;;;10.50;8.57;;;17.80;99.90;;;;;;5026654;28;20040;-71
2023/09/06 04:12:53;;;;;;;10.38;7.72;;;17.80;99.90;;;;;;5044120;28;20112;-71
2023/09/06 04:15:23;;;;;;;10.80;7.53;;;17.70;99.90;;;;;;5036896;28;20049;-71
2023/09/06 04:17:59;;;;;;;12.27;7.75;;;17.70;99.90;;;;;;5027776;28;20053;-72
2023/09/06 04:20:31;;;;;;;11.23;7.38;;;17.70;99.90;;;;;;5056256;28;20437;-71
2023/09/06 04:22:59;;;;;;;13.02;6.82;;;17.70;99.90;;;;;;5020895;28;20052;-71
2023/09/06 04:25:26;;;;;;;10.35;6.85;;;17.70;99.90;;;;;;5026065;28;20528;-71
2023/09/06 04:27:56;;;;;;;8.85;6.05;;;17.60;99.90;;;;;;5027671;28;20436;-71
2023/09/06 04:30:30;;;;;;;8.23;6.00;;;17.60;99.90;;;;;;5022792;28;20116;-72
2023/09/06 04:32:58;;;;;;;7.75;5.82;;;17.70;99.90;;;;;;5026215;28;20071;-71
2023/09/06 04:35:38;;;;;;;10.23;5.03;;;17.60;99.90;;;;;;5029103;28;20064;-71
2023/09/06 04:38:04;;;;;;;7.57;5.68;;;17.60;99.90;;;;;;5027386;28;20116;-72
2023/09/06 04:40:30;;;;;;;;;;;17.60;99.90;;;;;;5028138;28;20136;-72
2023/09/06 04:42:56;;;;;;;8.88;4.57;;;17.60;99.90;;;;;;5007330;28;19942;-72
2023/09/06 04:45:22;;;;;;;8.07;4.57;;;17.60;99.90;;;;;;5026698;28;20382;-71
2023/09/06 04:47:48;;;;;;;6.25;4.00;;;17.60;99.90;;;;;;5011751;28;20037;-72
2023/09/06 04:50:16;;;;;;;6.38;4.43;;;17.60;99.90;;;;;;5029255;28;20409;-72
2023/09/06 04:52:47;;;;;;;8.00;4.00;;;17.60;99.90;;;;;;5011156;28;20052;-72
2023/09/06 04:55:14;;;;;;;5.88;3.90;;;17.60;99.90;;;;;;5028207;28;20056;-71
2023/09/06 04:57:41;;;;;;;11.35;4.68;;;17.60;99.90;;;;;;5041554;28;20076;-71
2023/09/06 05:00:16;;;;;;;5.53;3.67;;;17.60;99.90;;;;;;5024906;28;20467;-71
2023/09/06 05:02:46;;;;;;;6.10;3.88;;;17.60;99.90;;;;;;5026266;28;20040;-71
2023/09/06 05:05:14;;;;;;;6.82;3.47;;;17.70;99.90;;;;;;5021681;28;20131;-71
2023/09/06 05:07:45;;;;;;;5.25;3.55;;;17.70;99.90;;;;;;5044571;28;20049;-71
2023/09/06 05:10:11;;;;;;;6.55;4.07;;;17.70;99.90;;;;;;5028756;28;20044;-71
2023/09/06 05:12:37;;;;;;;5.07;3.40;;;17.70;99.90;;;;;;5043387;28;20528;-71
2023/09/06 05:15:04;;;;;;;5.82;3.35;;;17.70;99.90;;;;;;5023714;28;20045;-71
2023/09/06 05:17:31;;;;;;;6.43;3.75;;;17.70;99.90;;;;;;5026114;28;20054;-71
2023/09/06 05:20:23;;;;;;;8.48;3.75;;;17.70;99.90;;;;;;5030880;28;20406;-72
2023/09/06 05:22:49;;;;;;;5.53;3.65;;;17.80;99.90;;;;;;5007590;28;20489;-72
2023/09/06 05:25:15;;;;;;;6.65;3.30;;;17.80;99.90;;;;;;5013272;28;20032;-71
2023/09/06 05:27:40;;;;;;;5.22;3.30;;;17.70;99.90;;;;;;5027943;28;20130;-71
2023/09/06 05:30:07;;;;;;;4.55;3.42;;;17.80;99.90;;;;;;5026947;28;20045;-72
2023/09/06 05:32:32;;;;;;;;;;;17.80;99.90;;;;;;5024497;28;20129;-71
2023/09/06 05:34:58;;;;;;;6.18;4.30;;;17.80;99.90;;;;;;5045316;28;19923;-72
2023/09/06 05:37:26;;;;;;;8.13;4.32;;;17.80;99.90;;;;;;5042685;28;20120;-71
2023/09/06 05:39:52;;;;;;;7.03;3.83;;;17.80;99.90;;;;;;5027360;28;20048;-71
2023/09/06 05:42:17;;;;;;;6.00;3.88;;;17.90;99.90;;;;;;5024188;28;20071;-71
2023/09/06 05:44:43;;;;;;;5.28;3.50;;;17.90;99.90;;;;;;5009967;28;20045;-70
2023/09/06 05:47:09;;;;;;;6.60;4.18;;;17.90;99.90;;;;;;5042297;28;20064;-71
2023/09/06 05:49:38;;;;;;;6.28;3.70;;;17.90;99.90;;;;;;5041275;28;20048;-70
2023/09/06 05:52:04;;;;;;;5.65;3.63;;;17.90;99.90;;;;;;5042177;28;20448;-71
2023/09/06 05:54:29;;;;;;;;;;;17.90;99.90;;;;;;5008443;28;20127;-71
2023/09/06 05:56:55;;;;;;;6.85;3.55;;;18.00;99.90;;;;;;5022533;28;20007;-72
2023/09/06 05:59:21;;;;;;;5.47;3.40;;;18.00;99.90;;;;;;5024875;28;20071;-73
2023/09/06 06:01:48;;;;;;;6.57;3.90;;;18.10;99.90;;;;;;5048325;28;20400;-72
2023/09/06 06:04:13;;;;;;;5.38;3.35;;;18.10;99.90;;;;;;5027990;28;20041;-73
2023/09/06 06:06:41;;;;;;;8.32;3.90;;;18.10;99.90;;;;;;5022731;28;20479;-71
2023/09/06 06:09:11;;;;;;;5.13;3.40;;;18.20;99.90;;;;;;5040841;28;20447;-70
2023/09/06 06:11:37;;;;;;;4.65;3.30;;;18.20;99.90;;;;;;5026555;28;20417;-71
2023/09/06 06:14:04;;;;;;;6.38;3.67;;;18.30;99.90;;;;;;5029855;28;20415;-70
2023/09/06 06:16:30;;;;;;;6.82;3.60;;;18.40;99.90;;;;;;5038623;28;20135;-73
2023/09/06 06:18:56;;;;;;;;;;;18.40;99.90;;;;;;5029310;28;20056;-70
2023/09/06 06:21:22;;;;;;;5.28;3.20;;;18.40;99.90;;;;;;5010571;28;19921;-70
2023/09/06 06:23:48;;;;;;;8.15;3.53;;;18.40;99.90;;;;;;5025024;28;20033;-70
2023/09/06 06:26:19;;;;;;;4.45;3.00;;;18.50;99.90;;;;;;5023128;28;20052;-70
2023/09/06 06:28:51;;;;;;;6.50;3.50;;;18.50;99.90;;;;;;5041982;28;20045;-71
2023/09/06 06:31:16;;;;;;;5.75;3.50;;;18.60;99.90;;;;;;5033136;28;20084;-70
2023/09/06 06:33:43;;;;;;;6.22;3.85;;;18.70;99.90;;;;;;5038784;22;20337;-70
2023/09/06 06:36:09;;;;;;;6.60;4.00;;;18.70;99.90;;;;;;5059478;28;20079;-70
2023/09/06 06:38:34;;;;;;;5.95;3.65;;;18.70;99.90;;;;;;5080417;28;20072;-70
2023/09/06 06:41:00;;;;;;;10.32;4.35;;;18.80;99.90;;;;;;5060189;28;20140;-70
2023/09/06 06:43:33;;;;;;;7.75;3.53;;;18.90;99.90;;;;;;5055452;28;20135;-70
2023/09/06 06:45:59;;;;;;;7.88;3.65;;;18.90;99.90;;;;;;5084013;28;20067;-70
2023/09/06 06:48:25;;;;;;;;;;;18.90;99.90;;;;;;5057649;28;20120;-70
2023/09/06 06:50:50;;;;;;;6.00;3.97;;;19.00;99.90;;;;;;5062993;28;20054;-71
2023/09/06 06:53:16;;;;;;;7.75;3.78;;;19.00;99.90;;;;;;5049180;28;20052;-71
2023/09/06 06:55:42;;;;;;;8.25;4.43;;;19.10;99.90;;;;;;5079719;28;20433;-71
2023/09/06 06:58:08;;;;;;;10.02;4.10;;;19.10;99.90;;;;;;5075946;28;20059;-70
2023/09/06 07:00:37;;;;;;;10.77;4.45;;;19.20;99.90;;;;;;5062672;28;20045;-71
2023/09/06 07:03:06;;;;;;;7.20;4.13;;;19.20;99.90;;;;;;5055201;28;20048;-71
2023/09/06 07:05:32;;;;;;;7.90;4.13;;;19.30;99.90;;;;;;5045942;28;20056;-71
2023/09/06 07:08:00;;;;;;;8.60;4.38;;;19.30;99.90;;;;;;5055288;28;20055;-71
2023/09/06 07:10:26;;;;;;;6.47;4.07;;;19.40;99.90;;;;;;5062939;28;20513;-70
2023/09/06 07:12:51;;;;;;;12.23;4.75;;;19.50;99.90;;;;;;5069522;28;20044;-71
2023/09/06 07:15:17;;;;;;;7.43;4.25;;;19.50;99.90;;;;;;5081657;28;20612;-70
2023/09/06 07:17:43;;;;;;;8.75;4.72;;;19.60;99.90;;;;;;5055764;28;20048;-70
2023/09/06 07:20:09;;;;;;;8.10;4.10;;;19.70;99.90;;;;;;5072800;28;20097;-71
2023/09/06 07:22:35;;;;;;;8.25;4.00;;;19.80;99.90;;;;;;5079347;28;20051;-70
2023/09/06 07:25:00;;;;;;;7.60;3.25;;;19.80;99.90;;;;;;5056997;28;20040;-70
2023/09/06 07:27:26;;;;;;;6.60;3.88;;;19.90;99.90;;;;;;5071058;28;20040;-70
2023/09/06 07:29:52;;;;;;;5.55;2.83;;;20.00;99.90;;;;;;5067644;28;20045;-70
2023/09/06 07:32:17;;;;;;;5.20;2.95;;;20.00;99.90;;;;;;5077717;28;20464;-70
2023/09/06 07:34:44;;;;;;;6.13;3.25;;;20.10;99.90;;;;;;5072048;28;20581;-71
2023/09/06 07:37:10;;;;;;;6.35;2.78;;;20.20;99.90;;;;;;5083697;28;20048;-71
2023/09/06 07:39:36;;;;;;;4.07;2.58;;;20.30;99.90;;;;;;5081548;28;20066;-70
2023/09/06 07:42:04;;;;;;;5.63;2.67;;;20.30;99.90;;;;;;5051036;28;20048;-70
2023/09/06 07:44:32;;;;;;;6.00;2.35;;;20.40;99.90;;;;;;5080853;28;20086;-70
2023/09/06 07:46:59;;;;;;;5.60;2.80;;;20.50;99.90;;;;;;5061444;28;20064;-70
2023/09/06 07:49:26;;;;;;;5.53;2.53;;;20.60;99.90;;;;;;5067394;28;20036;-70
2023/09/06 07:51:52;;;;;;;6.20;2.88;;;20.70;99.90;;;;;;5061136;28;20062;-70
2023/09/06 07:54:18;;;;;;;4.57;2.38;;;20.70;99.90;;;;;;5067080;28;20091;-70
2023/09/06 07:56:47;;;;;;;5.60;2.70;;;20.80;99.90;;;;;;5083234;28;20520;-71
2023/09/06 07:59:13;;;;;;;5.13;2.42;;;20.80;99.90;;;;;;5068326;28;20517;-70
2023/09/06 08:01:39;;;;;;;4.90;2.33;;;20.90;99.90;;;;;;5068184;28;20070;-70
2023/09/06 08:04:05;;;;;;;3.67;2.17;;;21.10;99.90;;;;;;5058327;28;20041;-71
2023/09/06 08:06:31;;;;;;;4.15;2.40;;;21.10;99.90;;;;;;5070689;28;20048;-71
2023/09/06 08:08:58;;;;;;;;;;;21.20;99.90;;;;;;5084155;28;20120;-70
2023/09/06 08:11:24;;;;;;;3.75;2.72;;;21.30;99.90;;;;;;5059561;28;19924;-70
2023/09/06 08:13:50;;;;;;;3.75;2.28;;;21.30;99.90;;;;;;5069817;28;20517;-71
2023/09/06 08:16:16;;;;;;;;;;;21.40;99.90;;;;;;5085070;28;20054;-70
2023/09/06 08:18:41;;;;;;;8.50;2.33;;;21.50;99.90;;;;;;5077479;28;19916;-71
2023/09/06 08:21:07;;;;;;;4.10;2.28;;;21.60;99.90;;;;;;5058727;28;20079;-71
2023/09/06 08:23:34;;;;;;;6.93;2.53;;;21.70;99.90;;;;;;5073388;28;20127;-70
2023/09/06 08:26:00;;;;;;;6.45;2.95;;;21.70;99.90;;;;;;5073079;28;20044;-71
2023/09/06 08:28:25;;;;;;;;;;;21.80;99.90;;;;;;5060447;28;20049;-71
2023/09/06 08:30:51;;;;;;;3.58;2.20;;;21.80;99.90;;;;;;5061375;28;19916;-71
2023/09/06 08:33:17;;;;;;;;;;;21.90;99.90;;;;;;5082524;28;20175;-70
2023/09/06 08:35:43;;;;;;;5.97;2.13;;;22.00;99.90;;;;;;5067248;28;19920;-71
2023/09/06 08:38:09;;;;;;;;;;;22.00;99.90;;;;;;5065260;28;20032;-71
2023/09/06 08:40:35;;;;;;;3.80;2.30;;;22.10;99.90;;;;;;5043972;28;20002;-71
2023/09/06 08:43:03;;;;;;;4.75;2.03;;;22.20;99.90;;;;;;5062534;28;20102;-71
2023/09/06 08:45:30;;;;;;;5.68;2.30;;;22.30;99.90;;;;;;5046459;28;20493;-71
2023/09/06 08:47:56;;;;;;;4.20;2.45;;;22.40;99.90;;;;;;5065285;28;20050;-71
2023/09/06 08:50:23;;;;;;;3.65;2.15;;;22.50;99.90;;;;;;5067650;28;20040;-70
2023/09/06 08:52:50;;;;;;;4.03;2.50;;;22.50;99.90;;;;;;5091147;28;20047;-71
2023/09/06 08:55:17;;;;;;;3.88;2.35;;;22.60;99.90;;;;;;5057931;28;20509;-71
2023/09/06 08:57:44;;;;;;;4.38;2.60;;;22.70;99.90;;;;;;5062244;28;20040;-70
2023/09/06 09:00:11;;;;;;;4.40;2.10;;;22.70;99.90;;;;;;5065015;28;20059;-70
2023/09/06 09:02:40;;;;;;;3.55;1.90;;;22.80;99.90;;;;;;5059270;28;20115;-70
2023/09/06 09:05:06;;;;;;;4.00;2.40;;;23.00;99.90;;;;;;5072993;28;20556;-70
2023/09/06 09:07:32;;;;;;;5.88;2.22;;;23.10;99.90;;;;;;5079001;28;20048;-70
2023/09/06 09:09:59;;;;;;;;;;;23.20;99.90;;;;;;5070322;28;20047;-70
2023/09/06 09:12:26;;;;;;;7.80;3.05;;;23.20;99.90;;;;;;5058939;28;19923;-70
2023/09/06 09:14:54;;;;;;;6.32;2.35;;;23.40;99.90;;;;;;5061666;28;20297;-70
2023/09/06 09:17:23;;;;;;;4.13;2.30;;;23.50;99.90;;;;;;5058469;28;20033;-70
2023/09/06 09:19:53;;;;;;;8.23;3.08;;;23.60;99.90;;;;;;5057483;28;20509;-70
2023/09/06 09:22:28;;;;;;;9.90;3.30;;;23.70;99.90;;;;;;5065233;28;20572;-70
2023/09/06 09:25:04;;;;;;;4.30;2.63;;;23.80;99.90;;;;;;5064849;28;20336;-70
2023/09/06 09:27:33;;;;;;;6.53;2.38;;;23.80;99.90;;;;;;5087249;28;20050;-70
2023/09/06 09:30:03;;;;;;;8.95;2.83;;;23.90;99.90;;;;;;5077392;28;20047;-70
2023/09/06 09:32:30;;;;;;;4.15;2.00;;;24.10;99.90;;;;;;5079297;28;20040;-70
2023/09/06 09:34:55;;;;;;;4.18;2.30;;;24.10;99.90;;;;;;5076655;28;20516;-70
2023/09/06 09:37:22;;;;;;;4.05;2.22;;;24.30;99.90;;;;;;5048387;28;20040;-70
2023/09/06 09:39:48;;;;;;;4.25;2.38;;;24.40;99.90;;;;;;5081231;28;20442;-70
2023/09/06 09:42:15;;;;;;;4.68;2.35;;;24.50;99.90;;;;;;5063111;28;20064;-69
2023/09/06 09:44:41;;;;;;;3.92;2.22;;;24.60;99.90;;;;;;5060149;28;20032;-70
2023/09/06 09:47:13;;;;;;;3.47;1.98;;;24.70;99.90;;;;;;5064261;28;20049;-70
2023/09/06 09:49:41;;;;;;;2.78;1.83;;;24.90;99.90;;;;;;5069139;28;20062;-70
2023/09/06 09:52:11;;;;;;;9.68;2.50;;;24.90;99.90;;;;;;5079098;28;20033;-70
2023/09/06 09:54:42;;;;;;;3.22;1.80;;;25.00;99.90;;;;;;5079808;28;20062;-70
2023/09/06 09:57:09;;;;;;;3.45;1.90;;;25.10;99.90;;;;;;5062337;28;20426;-70
2023/09/06 09:59:38;;;;;;;4.60;2.47;;;25.20;99.90;;;;;;5064795;28;20127;-70
2023/09/06 10:02:05;;;;;;;4.35;1.92;;;25.40;99.90;;;;;;5062386;28;20383;-70
2023/09/06 10:04:36;;;;;;;3.58;1.73;;;25.40;99.90;;;;;;5069018;28;20485;-70
2023/09/06 10:07:04;;;;;;;3.40;1.95;;;25.50;99.90;;;;;;5071737;28;20050;-70
2023/09/06 10:09:33;;;;;;;3.55;1.90;;;25.60;99.90;;;;;;5085450;28;20036;-70
2023/09/06 10:12:01;;;;;;;3.10;1.73;;;25.70;99.90;;;;;;5069972;28;20073;-70
2023/09/06 10:14:28;;;;;;;2.65;1.52;;;25.80;99.90;;;;;;5077672;28;20040;-70
2023/09/06 10:16:55;;;;;;;4.32;1.45;;;25.90;99.90;;;;;;5058363;28;20032;-71
2023/09/06 10:19:21;;;;;;;2.95;1.75;;;26.00;99.90;;;;;;5043607;28;20045;-71
2023/09/06 10:21:48;;;;;;;3.03;2.00;;;26.10;99.90;;;;;;5062949;28;20071;-71
2023/09/06 10:24:22;;;;;;;7.53;2.58;;;26.20;99.90;;;;;;5064165;28;20039;-71
2023/09/06 10:26:53;;;;;;;3.63;1.80;;;26.30;99.90;;;;;;5062519;28;20064;-71
2023/09/06 10:29:23;;;;;;;4.18;1.92;;;26.30;99.90;;;;;;5065739;28;20048;-71
2023/09/06 10:31:52;;;;;;;4.95;1.75;;;26.40;99.90;;;;;;5065275;28;20049;-71
2023/09/06 10:34:21;;;;;;;5.72;2.63;;;26.50;99.90;;;;;;5061131;28;20040;-71
2023/09/06 10:36:56;;;;;;;3.75;1.92;;;26.50;99.90;;;;;;5075840;28;20494;-71
2023/09/06 10:39:25;;;;;;;5.43;1.90;;;26.60;99.90;;;;;;5055197;28;20600;-70
2023/09/06 10:42:13;;;;;;;2.63;1.50;;;26.70;99.90;;;;;;5081864;28;20043;-71
2023/09/06 10:44:54;;;;;;;2.47;1.70;;;26.80;99.90;;;;;;5075430;28;20544;-71
2023/09/06 10:47:34;;;;;;;2.42;1.30;;;26.90;99.90;;;;;;5066652;28;20044;-71
2023/09/06 10:50:15;;;;;;;2.45;1.45;;;27.00;99.90;;;;;;5051222;28;20048;-71
2023/09/06 10:52:57;;;;;;;6.38;1.52;;;27.20;99.90;;;;;;5057969;28;20428;-71
2023/09/06 10:55:25;;;;;;;2.70;1.58;;;27.20;99.90;;;;;;5074028;28;20040;-71
2023/09/06 10:58:08;;;;;;;2.13;1.48;;;27.30;99.90;;;;;;5081082;28;20043;-71
2023/09/06 11:00:34;;;;;;;3.00;1.60;;;27.50;99.90;;;;;;5073229;28;20194;-71
2023/09/06 11:03:09;;;;;;;3.03;1.52;;;27.50;99.90;;;;;;5078033;28;20122;-71
2023/09/06 11:05:39;;;;;;;2.78;1.23;;;27.60;99.90;;;;;;5062659;28;20032;-72
2023/09/06 11:08:08;;;;;;;2.40;1.45;;;27.80;99.90;;;;;;5061605;28;20501;-71
2023/09/06 11:10:35;;;;;;;2.85;1.63;;;27.80;99.90;;;;;;5058513;28;20040;-71
2023/09/06 11:13:12;;;;;;;4.32;1.30;;;27.90;99.90;;;;;;5076203;28;20354;-71
2023/09/06 11:15:39;;;;;;;2.60;1.30;;;28.00;99.90;;;;;;5075562;28;20102;-71
2023/09/06 11:18:05;;;;;;;3.17;1.40;;;28.10;99.90;;;;;;5066309;28;20694;-71
2023/09/06 11:20:32;;;;;;;4.38;1.30;;;28.20;99.90;;;;;;5066114;28;20050;-72
2023/09/06 11:23:00;;;;;;;2.45;1.35;;;28.30;99.90;;;;;;5081686;28;20032;-71
2023/09/06 11:25:28;;;;;;;5.00;1.48;;;28.30;99.90;;;;;;5063089;28;20032;-71
2023/09/06 11:27:56;;;;;;;3.17;1.33;;;28.40;99.90;;;;;;5085833;28;20393;-71
2023/09/06 11:30:23;;;;;;;2.33;1.20;;;28.40;99.90;;;;;;5064409;28;20381;-69
2023/09/06 11:32:51;;;;;;;2.47;1.50;;;28.50;99.90;;;;;;5053206;28;20104;-69
2023/09/06 11:35:20;;;;;;;4.60;1.38;;;28.60;99.90;;;;;;5049819;28;20055;-69
2023/09/06 11:37:50;;;;;;;3.15;1.45;;;28.60;99.90;;;;;;5087784;28;20040;-69
2023/09/06 11:40:20;;;;;;;3.47;1.63;;;28.70;99.90;;;;;;5064361;28;20975;-69
2023/09/06 11:42:53;;;;;;;3.95;1.48;;;28.80;99.90;;;;;;5060918;28;20083;-69
2023/09/06 11:45:21;;;;;;;4.45;1.80;;;28.90;99.90;;;;;;5058660;28;20064;-69
2023/09/06 11:47:47;;;;;;;4.13;1.80;;;29.00;99.90;;;;;;5074671;28;20509;-70
2023/09/06 11:50:18;;;;;;;2.05;1.15;;;29.10;99.90;;;;;;5077575;28;20032;-69
2023/09/06 11:52:49;;;;;;;3.38;1.40;;;29.20;99.90;;;;;;5064345;28;20036;-69
2023/09/06 11:55:19;;;;;;;1.85;0.93;;;29.20;99.90;;;;;;5058514;28;20529;-69
2023/09/06 11:57:52;;;;;;;2.67;1.30;;;29.30;99.90;;;;;;5076209;28;20040;-69
2023/09/06 12:00:28;;;;;;;3.47;1.35;;;29.40;99.90;;;;;;5059655;28;20044;-69
2023/09/06 12:02:54;;;;;;;;;;;29.50;99.70;;;;;;5066513;28;20047;-69
2023/09/06 12:05:24;;;;;;;3.85;1.70;;;29.50;97.90;;;;;;5081164;28;19924;-69
2023/09/06 12:07:50;;;;;;;2.72;1.35;;;29.50;99.90;;;;;;5076465;28;20052;-69
2023/09/06 12:10:22;;;;;;;2.85;1.05;;;29.70;99.90;;;;;;5085171;28;20042;-69
2023/09/06 12:12:49;;;;;;;4.22;1.15;;;29.70;99.90;;;;;;5067753;28;20560;-69
2023/09/06 12:15:19;;;;;;;3.22;1.33;;;29.80;99.90;;;;;;5080124;28;20048;-70
2023/09/06 12:17:50;;;;;;;2.47;1.15;;;29.90;99.90;;;;;;5078216;28;20055;-69
2023/09/06 12:20:18;;;;;;;2.20;1.00;;;30.00;99.80;;;;;;5081673;28;20052;-69
2023/09/06 12:22:47;;;;;;;2.30;1.02;;;30.10;98.40;;;;;;5060893;28;20154;-69
2023/09/06 12:25:14;;;;;;;2.67;1.23;;;30.10;98.10;;;;;;5061566;28;20096;-70
2023/09/06 12:27:43;;;;;;;3.13;1.58;;;30.20;97.20;;;;;;5058014;28;20127;-70
2023/09/06 12:30:13;;;;;;;2.58;1.45;;;30.30;97.20;;;;;;5058914;28;20051;-69
2023/09/06 12:32:40;;;;;;;2.25;1.20;;;30.40;96.60;;;;;;5055765;28;20060;-69
2023/09/06 12:35:07;;;;;;;2.95;0.90;;;30.50;95.70;;;;;;5061444;28;20775;-69
2023/09/06 12:37:35;;;;;;;1.83;1.02;;;30.50;95.30;;;;;;5040727;28;20193;-69
2023/09/06 12:40:07;;;;;;;1.52;0.90;;;30.60;94.40;;;;;;5047296;28;20645;-69
2023/09/06 12:42:33;;;;;;;2.63;1.55;;;30.70;93.30;;;;;;5066956;28;20048;-69
2023/09/06 12:45:01;;;;;;;2.53;1.05;;;30.70;92.90;;;;;;5056243;28;20048;-69
2023/09/06 12:47:27;;;;;;;2.35;1.17;;;30.80;91.80;;;;;;5079531;28;20127;-69
2023/09/06 12:49:53;;;;;;;2.25;1.40;;;30.80;92.10;;;;;;5067953;28;20567;-69
2023/09/06 12:52:21;;;;;;;2.55;1.40;;;30.90;93.20;;;;;;5063258;28;20125;-69
2023/09/06 12:54:48;;;;;;;3.28;1.30;;;30.90;92.80;;;;;;5059461;28;20048;-70